createdAt,value
2022-09-06T00:00:43.825Z,20.55
2022-09-06T00:03:50.795Z,20.50
2022-09-06T00:06:52.597Z,20.46
2022-09-06T00:09:54.194Z,20.45
2022-09-06T00:12:55.852Z,20.42
2022-09-06T00:15:57.342Z,20.37
2022-09-06T00:19:03.282Z,20.34
2022-09-06T00:22:05.477Z,20.28
2022-09-06T00:25:07.326Z,20.27
2022-09-06T00:28:09.333Z,20.24
2022-09-06T00:31:12.203Z,20.21
2022-09-06T00:34:17.288Z,20.17
2022-09-06T00:37:18.789Z,20.12
2022-09-06T00:40:20.957Z,20.09
2022-09-06T00:43:22.675Z,20.04
2022-09-06T00:46:28.330Z,20.02
2022-09-06T00:49:32.859Z,19.98
2022-09-06T00:52:38.008Z,19.96
2022-09-06T00:55:41.643Z,19.96
2022-09-06T00:58:43.674Z,19.91
2022-09-06T01:01:52.489Z,19.87
2022-09-06T01:04:59.796Z,19.82
2022-09-06T01:08:05.916Z,19.79
2022-09-06T01:11:19.281Z,19.79
2022-09-06T01:14:25.880Z,19.75
2022-09-06T01:17:33.216Z,19.73
2022-09-06T01:20:45.304Z,19.72
2022-09-06T01:24:00.116Z,19.71
2022-09-06T01:27:28.965Z,19.68
2022-09-06T01:30:34.495Z,19.62
2022-09-06T01:33:40.866Z,19.61
2022-09-06T01:37:06.314Z,19.56
2022-09-06T01:40:06.709Z,19.57
2022-09-06T01:43:13.261Z,19.52
2022-09-06T01:46:20.393Z,19.49
2022-09-06T01:49:26.940Z,19.48
2022-09-06T01:52:31.325Z,19.49
2022-09-06T01:55:35.619Z,19.48
2022-09-06T01:58:51.640Z,19.42
2022-09-06T02:02:00.869Z,19.45
2022-09-06T02:05:05.015Z,19.44
2022-09-06T02:08:08.849Z,19.41
2022-09-06T02:11:11.017Z,19.39
2022-09-06T02:14:15.976Z,19.35
2022-09-06T02:17:21.916Z,19.29
2022-09-06T02:20:25.509Z,19.22
2022-09-06T02:23:29.126Z,19.19
2022-09-06T02:26:33.091Z,19.19
2022-09-06T02:29:35.645Z,19.18
2022-09-06T02:32:40.458Z,19.16
2022-09-06T02:35:42.972Z,19.14
2022-09-06T02:38:44.964Z,19.12
2022-09-06T02:41:48.302Z,19.15
2022-09-06T02:44:50.142Z,19.16
2022-09-06T02:47:53.032Z,19.19
2022-09-06T02:50:54.829Z,19.20
2022-09-06T02:53:56.904Z,19.19
2022-09-06T02:56:58.373Z,19.18
2022-09-06T03:00:00.030Z,19.18
2022-09-06T03:03:07.435Z,19.14
2022-09-06T03:06:09.050Z,19.17
2022-09-06T03:09:10.689Z,19.17
2022-09-06T03:12:12.505Z,19.17
2022-09-06T03:15:14.809Z,19.13
2022-09-06T03:18:18.092Z,19.10
2022-09-06T03:21:19.610Z,19.09
2022-09-06T03:24:21.387Z,19.08
2022-09-06T03:27:23.018Z,19.07
2022-09-06T03:30:24.518Z,19.07
2022-09-06T03:33:27.683Z,19.02
2022-09-06T03:36:29.856Z,19.01
2022-09-06T03:39:31.459Z,18.99
2022-09-06T03:42:33.131Z,18.97
2022-09-06T03:45:34.657Z,18.92
2022-09-06T03:48:37.805Z,18.89
2022-09-06T03:51:39.497Z,18.89
2022-09-06T03:54:40.984Z,18.84
2022-09-06T03:57:42.532Z,18.79
2022-09-06T04:00:45.305Z,18.79
2022-09-06T04:03:48.241Z,18.73
2022-09-06T04:06:49.715Z,18.71
2022-09-06T04:09:54.267Z,18.74
2022-09-06T04:12:55.878Z,18.73
2022-09-06T04:16:00.066Z,18.73
2022-09-06T04:19:04.331Z,18.77
2022-09-06T04:22:05.972Z,18.78
2022-09-06T04:25:08.211Z,18.77
2022-09-06T04:28:09.774Z,18.75
2022-09-06T04:31:11.226Z,18.74
2022-09-06T04:34:14.269Z,18.74
2022-09-06T04:37:20.153Z,18.74
2022-09-06T04:40:24.647Z,18.63
2022-09-06T04:43:26.562Z,18.68
2022-09-06T04:46:29.897Z,18.74
2022-09-06T04:49:32.861Z,18.75
2022-09-06T04:52:34.636Z,18.79
2022-09-06T04:55:37.267Z,18.78
2022-09-06T04:58:38.834Z,18.81
2022-09-06T05:01:40.455Z,18.81
2022-09-06T05:04:45.059Z,18.79
2022-09-06T05:07:46.707Z,18.81
2022-09-06T05:10:51.062Z,18.77
2022-09-06T05:13:52.653Z,18.77
2022-09-06T05:16:54.556Z,18.81
2022-09-06T05:19:57.741Z,18.83
2022-09-06T05:22:59.403Z,18.82
2022-09-06T05:26:01.207Z,18.83
2022-09-06T05:29:03.325Z,18.80
2022-09-06T05:32:13.011Z,18.82
2022-09-06T05:35:22.528Z,18.79
2022-09-06T05:38:28.189Z,18.76
2022-09-06T05:41:35.251Z,18.71
2022-09-06T05:44:37.403Z,18.73
2022-09-06T05:47:39.352Z,18.77
2022-09-06T05:50:43.166Z,18.79
2022-09-06T05:53:45.907Z,18.79
2022-09-06T05:56:47.845Z,18.78
2022-09-06T05:59:49.694Z,18.80
2022-09-06T06:02:51.519Z,18.80
2022-09-06T06:05:54.491Z,18.83
2022-09-06T06:08:56.501Z,18.79
2022-09-06T06:11:58.186Z,18.78
2022-09-06T06:14:59.720Z,18.75
2022-09-06T06:18:01.225Z,18.74
2022-09-06T06:21:12.166Z,18.74
2022-09-06T06:24:13.694Z,18.75
2022-09-06T06:27:15.768Z,18.71
2022-09-06T06:30:18.568Z,18.69
2022-09-06T06:33:20.440Z,18.68
2022-09-06T06:36:27.361Z,18.67
2022-09-06T06:39:29.290Z,18.70
2022-09-06T06:42:30.993Z,18.73
2022-09-06T06:45:32.539Z,18.77
2022-09-06T06:48:34.465Z,18.90
2022-09-06T06:51:37.967Z,18.97
2022-09-06T06:54:39.998Z,18.98
2022-09-06T06:57:41.625Z,19.02
2022-09-06T07:00:43.822Z,19.06
2022-09-06T07:03:45.727Z,19.08
2022-09-06T07:13:36.092Z,19.23
2022-09-06T07:16:37.866Z,19.32
2022-09-06T07:26:28.604Z,19.62
2022-09-06T07:29:31.169Z,19.74
2022-09-06T07:32:34.537Z,19.88
2022-09-06T07:35:36.175Z,19.97
2022-09-06T07:38:39.206Z,20.06
2022-09-06T07:41:42.699Z,20.00
2022-09-06T07:44:44.285Z,19.93
2022-09-06T07:51:05.036Z,19.91
2022-09-06T07:57:30.119Z,20.10
2022-09-06T08:00:36.121Z,20.22
2022-09-06T08:03:37.864Z,20.29
2022-09-06T08:10:03.790Z,20.64
2022-09-06T08:13:05.489Z,20.63
2022-09-06T08:16:07.998Z,20.64
2022-09-06T08:19:11.045Z,20.63
2022-09-06T08:22:12.771Z,20.72
2022-09-06T08:25:15.884Z,20.81
2022-09-06T08:28:22.804Z,21.02
2022-09-06T08:31:28.210Z,21.10
2022-09-06T08:34:30.304Z,21.13
2022-09-06T08:37:32.074Z,21.23
2022-09-06T08:40:35.280Z,21.35
2022-09-06T08:43:38.087Z,21.54
2022-09-06T08:46:41.265Z,21.69
2022-09-06T08:49:45.077Z,21.72
2022-09-06T08:53:06.514Z,21.81
2022-09-06T08:56:17.388Z,21.97
2022-09-06T08:59:20.464Z,22.01
2022-09-06T09:02:22.689Z,22.07
2022-09-06T09:05:26.722Z,22.25
2022-09-06T09:08:32.886Z,22.33
2022-09-06T09:11:36.496Z,22.33
2022-09-06T09:14:39.604Z,22.38
2022-09-06T09:17:41.546Z,22.29
2022-09-06T09:20:43.265Z,22.33
2022-09-06T09:23:47.750Z,22.63
2022-09-06T09:26:52.775Z,22.61
2022-09-06T09:33:23.252Z,22.44
2022-09-06T09:36:25.081Z,22.45
2022-09-06T09:39:33.697Z,22.41
2022-09-06T09:42:37.439Z,22.49
2022-09-06T09:45:39.518Z,22.55
2022-09-06T09:48:42.001Z,22.74
2022-09-06T09:51:45.213Z,22.82
2022-09-06T09:54:50.750Z,23.05
2022-09-06T09:57:54.407Z,23.45
2022-09-06T10:01:10.001Z,23.67
2022-09-06T10:07:42.842Z,23.83
2022-09-06T10:10:47.574Z,23.75
2022-09-06T10:13:52.312Z,23.85
2022-09-06T10:16:57.459Z,23.77
2022-09-06T10:20:05.486Z,23.62
2022-09-06T10:23:11.733Z,23.81
2022-09-06T10:26:19.175Z,23.85
2022-09-06T10:29:28.289Z,24.19
2022-09-06T10:32:37.034Z,24.23
2022-09-06T10:35:38.581Z,24.13
2022-09-06T10:38:53.534Z,24.10
2022-09-06T10:42:02.022Z,24.08
2022-09-06T10:45:14.816Z,24.12
2022-09-06T10:48:19.049Z,24.13
2022-09-06T10:51:30.731Z,24.30
2022-09-06T10:54:33.698Z,24.51
2022-09-06T11:01:06.035Z,24.36
2022-09-06T11:04:12.819Z,24.42
2022-09-06T11:07:21.264Z,24.48
2022-09-06T11:10:26.381Z,24.61
2022-09-06T11:13:28.418Z,24.65
2022-09-06T11:16:34.079Z,24.84
2022-09-06T11:19:40.762Z,24.97
2022-09-06T11:22:52.462Z,24.84
2022-09-06T11:26:09.221Z,24.75
2022-09-06T11:29:17.749Z,24.97
2022-09-06T11:32:33.231Z,25.23
2022-09-06T11:35:36.051Z,25.41
2022-09-06T11:38:40.853Z,25.35
2022-09-06T11:41:42.828Z,25.51
2022-09-06T11:44:52.998Z,25.87
2022-09-06T11:47:56.134Z,25.83
2022-09-06T11:51:02.723Z,25.79
2022-09-06T11:54:06.943Z,25.69
2022-09-06T11:57:14.763Z,25.70
2022-09-06T12:00:18.975Z,25.85
2022-09-06T12:07:09.646Z,25.78
2022-09-06T12:10:29.937Z,26.01
2022-09-06T12:13:49.433Z,26.05
2022-09-06T12:17:10.005Z,25.88
2022-09-06T12:20:11.749Z,26.01
2022-09-06T12:23:40.403Z,26.13
2022-09-06T12:26:54.461Z,26.36
2022-09-06T12:29:58.531Z,26.51
2022-09-06T12:33:00.895Z,26.15
2022-09-06T12:36:12.609Z,25.98
2022-09-06T12:39:15.696Z,25.92
2022-09-06T12:42:17.345Z,26.15
2022-09-06T12:45:21.192Z,26.40
2022-09-06T12:48:28.728Z,26.47
2022-09-06T12:51:31.065Z,26.51
2022-09-06T12:54:41.095Z,26.63
2022-09-06T12:57:47.540Z,26.68
2022-09-06T13:00:52.047Z,26.57
2022-09-06T13:03:57.778Z,26.54
2022-09-06T13:07:00.671Z,26.46
2022-09-06T13:10:04.277Z,26.35
2022-09-06T13:13:07.403Z,26.53
2022-09-06T13:16:08.923Z,26.58
2022-09-06T13:19:11.704Z,26.63
2022-09-06T13:22:33.661Z,26.67
2022-09-06T13:25:46.272Z,26.65
2022-09-06T13:28:48.279Z,26.62
2022-09-06T13:31:51.915Z,26.56
2022-09-06T13:34:57.234Z,26.53
2022-09-06T13:38:17.676Z,26.60
2022-09-06T13:41:34.440Z,26.54
2022-09-06T13:44:38.880Z,26.58
2022-09-06T13:47:40.542Z,26.56
2022-09-06T13:50:42.292Z,26.59
2022-09-06T13:53:44.193Z,26.62
2022-09-06T13:56:46.060Z,26.64
2022-09-06T13:59:49.093Z,26.65
2022-09-06T14:02:51.171Z,26.65
2022-09-06T14:05:53.226Z,26.58
2022-09-06T14:09:07.043Z,26.65
2022-09-06T14:12:10.312Z,26.67
2022-09-06T14:15:13.467Z,26.54
2022-09-06T14:18:15.209Z,26.27
2022-09-06T14:21:16.878Z,26.34
2022-09-06T14:24:18.981Z,26.50
2022-09-06T14:27:21.135Z,26.51
2022-09-06T14:30:24.475Z,26.61
2022-09-06T14:33:26.596Z,26.65
2022-09-06T14:36:30.766Z,26.62
2022-09-06T14:39:32.647Z,26.61
2022-09-06T14:42:34.616Z,26.65
2022-09-06T14:45:37.735Z,26.65
2022-09-06T14:48:42.289Z,26.58
2022-09-06T14:51:46.264Z,26.60
2022-09-06T14:54:48.240Z,26.62
2022-09-06T14:57:50.316Z,26.57
2022-09-06T15:00:55.634Z,26.56
2022-09-06T15:03:59.300Z,26.57
2022-09-06T15:07:01.084Z,26.56
2022-09-06T15:10:03.306Z,26.52
2022-09-06T15:13:05.522Z,26.53
2022-09-06T15:16:09.512Z,26.50
2022-09-06T15:19:11.309Z,26.59
2022-09-06T15:22:15.428Z,26.63
2022-09-06T15:25:17.193Z,26.56
2022-09-06T15:28:19.450Z,26.52
2022-09-06T15:31:22.811Z,26.48
2022-09-06T15:34:25.373Z,26.46
2022-09-06T15:37:27.121Z,26.44
2022-09-06T15:40:28.973Z,26.39
2022-09-06T15:43:32.355Z,26.49
2022-09-06T15:46:42.936Z,26.44
2022-09-06T15:49:44.833Z,26.39
2022-09-06T15:52:46.582Z,26.34
2022-09-06T15:55:58.231Z,26.35
2022-09-06T15:59:00.447Z,26.43
2022-09-06T16:02:03.633Z,26.40
2022-09-06T16:05:06.038Z,26.35
2022-09-06T16:08:07.667Z,26.29
2022-09-06T16:11:17.958Z,26.23
2022-09-06T16:14:19.714Z,26.21
2022-09-06T16:17:23.968Z,26.20
2022-09-06T16:20:26.671Z,26.12
2022-09-06T16:23:29.629Z,26.06
2022-09-06T16:26:32.511Z,25.96
2022-09-06T16:29:34.467Z,25.88
2022-09-06T16:32:37.586Z,25.80
2022-09-06T16:35:39.640Z,25.70
2022-09-06T16:38:41.727Z,25.57
2022-09-06T16:41:44.551Z,25.50
2022-09-06T16:44:46.163Z,25.47
2022-09-06T16:47:49.344Z,25.40
2022-09-06T16:50:51.017Z,25.33
2022-09-06T16:53:53.486Z,25.25
2022-09-06T16:56:55.565Z,25.14
2022-09-06T16:59:57.502Z,25.07
2022-09-06T17:03:01.116Z,24.98
2022-09-06T17:06:07.123Z,24.90
2022-09-06T17:09:08.876Z,24.83
2022-09-06T17:12:10.453Z,24.77
2022-09-06T17:15:11.954Z,24.70
2022-09-06T17:18:15.261Z,24.64
2022-09-06T17:21:16.823Z,24.57
2022-09-06T17:24:19.010Z,24.50
2022-09-06T17:27:20.987Z,24.46
2022-09-06T17:30:22.890Z,24.39
2022-09-06T17:33:26.177Z,24.32
2022-09-06T17:36:30.588Z,24.21
2022-09-06T17:39:32.645Z,24.14
2022-09-06T17:42:34.614Z,24.08
2022-09-06T17:45:37.132Z,24.03
2022-09-06T17:48:40.326Z,23.96
2022-09-06T17:51:42.032Z,23.88
2022-09-06T17:54:44.274Z,23.83
2022-09-06T17:57:46.083Z,23.76
2022-09-06T18:00:47.839Z,23.68
2022-09-06T18:03:51.863Z,23.61
2022-09-06T18:06:53.669Z,23.55
2022-09-06T18:09:55.502Z,23.50
2022-09-06T18:12:57.090Z,23.43
2022-09-06T18:15:59.086Z,23.38
2022-09-06T18:19:04.577Z,23.35
2022-09-06T18:22:06.307Z,23.32
2022-09-06T18:25:08.991Z,23.26
2022-09-06T18:28:10.639Z,23.22
2022-09-06T18:31:13.253Z,23.20
2022-09-06T18:34:16.976Z,23.18
2022-09-06T18:37:18.609Z,23.16
2022-09-06T18:40:20.737Z,23.13
2022-09-06T18:43:23.392Z,23.09
2022-09-06T18:46:25.061Z,23.05
2022-09-06T18:49:28.694Z,23.04
2022-09-06T18:52:30.331Z,22.95
2022-09-06T18:55:38.181Z,22.95
2022-09-06T18:58:40.449Z,22.94
2022-09-06T19:01:43.395Z,22.92
2022-09-06T19:04:48.430Z,22.89
2022-09-06T19:07:50.019Z,22.88
2022-09-06T19:10:58.670Z,22.85
2022-09-06T19:14:02.888Z,22.82
2022-09-06T19:17:04.434Z,22.77
2022-09-06T19:20:10.892Z,22.72
2022-09-06T19:23:12.597Z,22.64
2022-09-06T19:26:17.778Z,22.61
2022-09-06T19:29:19.599Z,22.57
2022-09-06T19:32:22.306Z,22.52
2022-09-06T19:35:25.467Z,22.50
2022-09-06T19:38:27.925Z,22.46
2022-09-06T19:41:34.319Z,22.42
2022-09-06T19:44:36.146Z,22.37
2022-09-06T19:47:37.723Z,22.33
2022-09-06T19:50:42.689Z,22.28
2022-09-06T19:53:47.607Z,22.23
2022-09-06T19:56:49.303Z,22.19
2022-09-06T19:59:50.876Z,22.15
2022-09-06T20:02:54.960Z,22.16
2022-09-06T20:05:58.351Z,22.14
2022-09-06T20:09:03.599Z,22.10
2022-09-06T20:12:05.384Z,22.09
2022-09-06T20:15:09.916Z,22.06
2022-09-06T20:18:11.510Z,22.05
2022-09-06T20:21:15.069Z,22.02
2022-09-06T20:24:16.756Z,22.00
2022-09-06T20:27:18.364Z,22.02
2022-09-06T20:30:19.892Z,21.97
2022-09-06T20:33:22.008Z,21.95
2022-09-06T20:36:25.278Z,21.94
2022-09-06T20:39:27.107Z,21.93
2022-09-06T20:42:28.829Z,21.91
2022-09-06T20:45:31.315Z,21.86
2022-09-06T20:48:33.611Z,21.81
2022-09-06T20:51:45.873Z,21.75
2022-09-06T20:54:48.380Z,21.69
2022-09-06T20:57:50.035Z,21.62
2022-09-06T21:00:52.295Z,21.54
2022-09-06T21:03:55.544Z,21.55
2022-09-06T21:06:58.759Z,21.52
2022-09-06T21:10:00.375Z,21.45
2022-09-06T21:13:02.011Z,21.47
2022-09-06T21:16:04.258Z,21.45
2022-09-06T21:19:06.729Z,21.41
2022-09-06T21:22:09.950Z,21.30
2022-09-06T21:25:12.043Z,21.24
2022-09-06T21:28:13.603Z,21.18
2022-09-06T21:31:16.146Z,21.14
2022-09-06T21:34:17.982Z,21.05
2022-09-06T21:37:21.428Z,20.98
2022-09-06T21:40:22.964Z,20.92
2022-09-06T21:43:24.683Z,20.90
2022-09-06T21:46:31.915Z,20.92
2022-09-06T21:49:34.814Z,20.91
2022-09-06T21:52:37.811Z,20.91
2022-09-06T21:55:39.669Z,20.91
2022-09-06T21:58:41.558Z,20.92
2022-09-06T22:01:45.273Z,20.91
2022-09-06T22:04:47.411Z,20.91
2022-09-06T22:07:50.264Z,20.89
2022-09-06T22:10:51.989Z,20.89
2022-09-06T22:13:53.743Z,20.83
2022-09-06T22:16:55.405Z,20.81
2022-09-06T22:19:57.264Z,20.80
2022-09-06T22:23:01.687Z,20.77
2022-09-06T22:26:04.306Z,20.74
2022-09-06T22:29:07.310Z,20.71
2022-09-06T22:32:09.356Z,20.69
2022-09-06T22:35:10.949Z,20.66
2022-09-06T22:38:14.399Z,20.65
2022-09-06T22:41:15.955Z,20.62
2022-09-06T22:44:19.666Z,20.63
2022-09-06T22:47:21.565Z,20.65
2022-09-06T22:50:23.138Z,20.63
2022-09-06T22:53:26.589Z,20.57
2022-09-06T22:56:28.806Z,20.53
2022-09-06T22:59:31.219Z,20.50
2022-09-06T23:02:33.314Z,20.47
2022-09-06T23:05:35.052Z,20.45
2022-09-06T23:08:38.961Z,20.40
2022-09-06T23:11:40.856Z,20.34
2022-09-06T23:14:42.644Z,20.32
2022-09-06T23:17:44.392Z,20.28
2022-09-06T23:20:46.339Z,20.25
2022-09-06T23:23:50.795Z,20.25
2022-09-06T23:26:52.709Z,20.20
2022-09-06T23:29:54.517Z,20.19
2022-09-06T23:32:56.692Z,20.23
2022-09-06T23:35:58.977Z,20.26
2022-09-06T23:39:02.457Z,20.24
2022-09-06T23:42:04.285Z,20.19
2022-09-06T23:45:06.407Z,20.15
2022-09-06T23:48:11.376Z,20.13
2022-09-06T23:51:13.267Z,20.09
2022-09-06T23:54:16.491Z,20.07
2022-09-06T23:57:18.138Z,20.04
